sensor_id;sensor_type;location;lat;lon;timestamp;P1;durP1;ratioP1;P2;durP2;ratioP2
52642;SDS011;38531;53.296;6.614;2023-03-01T02:38:59;14.27;;;5.32;;
52642;SDS011;38531;53.296;6.614;2023-03-01T02:41:31;10.98;;;4.45;;
52642;SDS011;38531;53.296;6.614;2023-03-01T02:44:00;10.05;;;4.45;;
52642;SDS011;38531;53.296;6.614;2023-03-01T02:46:27;12.18;;;5.05;;
52642;SDS011;38531;53.296;6.614;2023-03-01T02:48:55;12.32;;;5.35;;
52642;SDS011;38531;53.296;6.614;2023-03-01T02:56:41;9.45;;;3.97;;
52642;SDS011;38531;53.296;6.614;2023-03-01T02:59:09;10.60;;;4.55;;
52642;SDS011;38531;53.296;6.614;2023-03-01T03:01:35;10.30;;;4.38;;
52642;SDS011;38531;53.296;6.614;2023-03-01T03:04:08;9.27;;;4.15;;
52642;SDS011;38531;53.296;6.614;2023-03-01T03:06:36;9.13;;;4.25;;
52642;SDS011;38531;53.296;6.614;2023-03-01T03:09:03;8.73;;;4.65;;
52642;SDS011;38531;53.296;6.614;2023-03-01T03:11:29;9.63;;;4.78;;
52642;SDS011;38531;53.296;6.614;2023-03-01T03:13:57;10.25;;;4.38;;
52642;SDS011;38531;53.296;6.614;2023-03-01T03:16:23;7.65;;;4.32;;
52642;SDS011;38531;53.296;6.614;2023-03-01T03:18:49;7.13;;;3.33;;
52642;SDS011;38531;53.296;6.614;2023-03-01T03:21:16;4.70;;;2.25;;
52642;SDS011;38531;53.296;6.614;2023-03-01T03:23:42;5.78;;;2.13;;
52642;SDS011;38531;53.296;6.614;2023-03-01T03:26:08;4.35;;;2.53;;
52642;SDS011;38531;53.296;6.614;2023-03-01T03:28:34;6.22;;;2.65;;
52642;SDS011;38531;53.296;6.614;2023-03-01T03:31:00;5.03;;;3.03;;
52642;SDS011;38531;53.296;6.614;2023-03-01T03:33:30;4.93;;;2.90;;
52642;SDS011;38531;53.296;6.614;2023-03-01T03:35:56;7.13;;;3.78;;
52642;SDS011;38531;53.296;6.614;2023-03-01T03:38:21;6.15;;;3.22;;
52642;SDS011;38531;53.296;6.614;2023-03-01T03:40:48;5.75;;;2.88;;
52642;SDS011;38531;53.296;6.614;2023-03-01T03:43:17;6.25;;;3.15;;
52642;SDS011;38531;53.296;6.614;2023-03-01T03:45:48;6.10;;;3.72;;
52642;SDS011;38531;53.296;6.614;2023-03-01T03:48:15;7.47;;;3.58;;
52642;SDS011;38531;53.296;6.614;2023-03-01T03:50:41;7.03;;;3.53;;
52642;SDS011;38531;53.296;6.614;2023-03-01T03:53:11;4.85;;;2.70;;
52642;SDS011;38531;53.296;6.614;2023-03-01T03:55:37;7.45;;;3.67;;
52642;SDS011;38531;53.296;6.614;2023-03-01T03:58:06;10.40;;;5.45;;
52642;SDS011;38531;53.296;6.614;2023-03-01T04:00:37;9.73;;;4.82;;
52642;SDS011;38531;53.296;6.614;2023-03-01T04:03:05;8.45;;;5.18;;
52642;SDS011;38531;53.296;6.614;2023-03-01T04:05:34;7.53;;;4.53;;
52642;SDS011;38531;53.296;6.614;2023-03-01T04:08:02;8.45;;;4.60;;
52642;SDS011;38531;53.296;6.614;2023-03-01T04:10:35;8.07;;;4.70;;
52642;SDS011;38531;53.296;6.614;2023-03-01T04:13:04;6.15;;;4.28;;
52642;SDS011;38531;53.296;6.614;2023-03-01T04:15:31;6.10;;;3.80;;
52642;SDS011;38531;53.296;6.614;2023-03-01T04:17:58;6.05;;;3.78;;
52642;SDS011;38531;53.296;6.614;2023-03-01T04:20:25;6.28;;;2.97;;
52642;SDS011;38531;53.296;6.614;2023-03-01T04:23:04;5.22;;;2.70;;
52642;SDS011;38531;53.296;6.614;2023-03-01T04:25:48;5.03;;;2.78;;
52642;SDS011;38531;53.296;6.614;2023-03-01T04:28:32;3.90;;;2.35;;
52642;SDS011;38531;53.296;6.614;2023-03-01T04:31:06;4.20;;;2.30;;
52642;SDS011;38531;53.296;6.614;2023-03-01T04:33:45;4.80;;;2.33;;
52642;SDS011;38531;53.296;6.614;2023-03-01T04:36:11;3.80;;;2.15;;
52642;SDS011;38531;53.296;6.614;2023-03-01T04:38:39;2.83;;;2.00;;
52642;SDS011;38531;53.296;6.614;2023-03-01T04:41:09;3.08;;;2.38;;
52642;SDS011;38531;53.296;6.614;2023-03-01T04:43:38;6.18;;;3.08;;
52642;SDS011;38531;53.296;6.614;2023-03-01T04:46:04;5.57;;;2.78;;
52642;SDS011;38531;53.296;6.614;2023-03-01T04:48:37;4.60;;;2.30;;
52642;SDS011;38531;53.296;6.614;2023-03-01T04:51:04;3.70;;;2.20;;
52642;SDS011;38531;53.296;6.614;2023-03-01T04:53:31;4.35;;;1.98;;
52642;SDS011;38531;53.296;6.614;2023-03-01T04:55:58;3.80;;;2.05;;
52642;SDS011;38531;53.296;6.614;2023-03-01T04:58:25;4.22;;;2.55;;
52642;SDS011;38531;53.296;6.614;2023-03-01T05:00:52;3.33;;;1.90;;
52642;SDS011;38531;53.296;6.614;2023-03-01T05:03:19;4.47;;;2.47;;
52642;SDS011;38531;53.296;6.614;2023-03-01T05:05:46;3.15;;;2.55;;
52642;SDS011;38531;53.296;6.614;2023-03-01T05:08:13;4.32;;;2.47;;
52642;SDS011;38531;53.296;6.614;2023-03-01T05:10:46;3.58;;;2.35;;
52642;SDS011;38531;53.296;6.614;2023-03-01T05:13:16;4.70;;;2.42;;
52642;SDS011;38531;53.296;6.614;2023-03-01T05:15:53;4.28;;;2.75;;
52642;SDS011;38531;53.296;6.614;2023-03-01T05:18:24;2.63;;;2.08;;
52642;SDS011;38531;53.296;6.614;2023-03-01T05:20:53;3.80;;;1.92;;
52642;SDS011;38531;53.296;6.614;2023-03-01T05:23:33;3.22;;;1.75;;
52642;SDS011;38531;53.296;6.614;2023-03-01T05:25:59;3.33;;;2.13;;
52642;SDS011;38531;53.296;6.614;2023-03-01T05:28:27;3.78;;;2.13;;
52642;SDS011;38531;53.296;6.614;2023-03-01T05:30:53;2.95;;;1.50;;
52642;SDS011;38531;53.296;6.614;2023-03-01T05:33:23;3.35;;;2.00;;
52642;SDS011;38531;53.296;6.614;2023-03-01T05:35:50;4.80;;;2.45;;
52642;SDS011;38531;53.296;6.614;2023-03-01T05:38:17;6.05;;;2.85;;
52642;SDS011;38531;53.296;6.614;2023-03-01T05:40:44;4.22;;;2.50;;
52642;SDS011;38531;53.296;6.614;2023-03-01T05:43:12;4.43;;;2.50;;
52642;SDS011;38531;53.296;6.614;2023-03-01T05:45:39;5.88;;;2.88;;
52642;SDS011;38531;53.296;6.614;2023-03-01T05:48:06;6.18;;;2.92;;
52642;SDS011;38531;53.296;6.614;2023-03-01T05:50:37;5.80;;;2.50;;
52642;SDS011;38531;53.296;6.614;2023-03-01T05:53:11;5.65;;;2.75;;
52642;SDS011;38531;53.296;6.614;2023-03-01T05:55:41;4.75;;;2.60;;
52642;SDS011;38531;53.296;6.614;2023-03-01T05:58:12;6.00;;;2.42;;
52642;SDS011;38531;53.296;6.614;2023-03-01T06:00:40;4.28;;;2.05;;
52642;SDS011;38531;53.296;6.614;2023-03-01T06:03:09;5.47;;;2.53;;
52642;SDS011;38531;53.296;6.614;2023-03-01T06:05:36;3.92;;;2.00;;
52642;SDS011;38531;53.296;6.614;2023-03-01T06:08:02;5.15;;;2.03;;
52642;SDS011;38531;53.296;6.614;2023-03-01T06:10:28;4.70;;;1.85;;
52642;SDS011;38531;53.296;6.614;2023-03-01T06:12:56;4.45;;;2.15;;
52642;SDS011;38531;53.296;6.614;2023-03-01T06:15:25;4.47;;;2.22;;
52642;SDS011;38531;53.296;6.614;2023-03-01T06:17:53;4.75;;;2.15;;
52642;SDS011;38531;53.296;6.614;2023-03-01T06:20:22;3.65;;;2.22;;
52642;SDS011;38531;53.296;6.614;2023-03-01T06:22:49;5.43;;;2.92;;
52642;SDS011;38531;53.296;6.614;2023-03-01T06:25:20;4.78;;;2.08;;
52642;SDS011;38531;53.296;6.614;2023-03-01T06:27:47;5.55;;;2.38;;
52642;SDS011;38531;53.296;6.614;2023-03-01T06:30:15;5.22;;;2.45;;
52642;SDS011;38531;53.296;6.614;2023-03-01T06:32:42;4.47;;;2.53;;
52642;SDS011;38531;53.296;6.614;2023-03-01T06:35:10;4.68;;;2.40;;
52642;SDS011;38531;53.296;6.614;2023-03-01T06:37:38;6.20;;;2.90;;
52642;SDS011;38531;53.296;6.614;2023-03-01T06:40:04;5.85;;;2.80;;
52642;SDS011;38531;53.296;6.614;2023-03-01T06:42:36;4.50;;;2.30;;
52642;SDS011;38531;53.296;6.614;2023-03-01T06:45:03;6.00;;;3.08;;
52642;SDS011;38531;53.296;6.614;2023-03-01T06:47:30;4.90;;;2.63;;
52642;SDS011;38531;53.296;6.614;2023-03-01T06:49:58;4.97;;;2.90;;
52642;SDS011;38531;53.296;6.614;2023-03-01T06:52:27;4.15;;;2.40;;
52642;SDS011;38531;53.296;6.614;2023-03-01T06:54:53;6.75;;;2.80;;
52642;SDS011;38531;53.296;6.614;2023-03-01T06:57:19;6.82;;;2.70;;
52642;SDS011;38531;53.296;6.614;2023-03-01T06:59:46;6.22;;;3.03;;
52642;SDS011;38531;53.296;6.614;2023-03-01T07:02:12;5.53;;;2.53;;
52642;SDS011;38531;53.296;6.614;2023-03-01T07:04:38;6.20;;;3.35;;
52642;SDS011;38531;53.296;6.614;2023-03-01T07:07:04;8.60;;;3.97;;
52642;SDS011;38531;53.296;6.614;2023-03-01T07:09:30;9.93;;;4.80;;
52642;SDS011;38531;53.296;6.614;2023-03-01T07:11:56;8.35;;;4.15;;
52642;SDS011;38531;53.296;6.614;2023-03-01T07:14:22;8.05;;;4.07;;
52642;SDS011;38531;53.296;6.614;2023-03-01T07:16:54;9.88;;;4.32;;
52642;SDS011;38531;53.296;6.614;2023-03-01T07:19:20;9.10;;;4.18;;
52642;SDS011;38531;53.296;6.614;2023-03-01T07:21:46;8.98;;;4.50;;
52642;SDS011;38531;53.296;6.614;2023-03-01T07:24:12;8.57;;;4.40;;
52642;SDS011;38531;53.296;6.614;2023-03-01T07:26:38;6.70;;;3.53;;
52642;SDS011;38531;53.296;6.614;2023-03-01T07:29:04;8.73;;;4.10;;
52642;SDS011;38531;53.296;6.614;2023-03-01T07:31:31;7.57;;;3.75;;
52642;SDS011;38531;53.296;6.614;2023-03-01T07:33:57;6.25;;;3.00;;
52642;SDS011;38531;53.296;6.614;2023-03-01T07:36:23;4.82;;;2.42;;
52642;SDS011;38531;53.296;6.614;2023-03-01T07:38:50;6.50;;;2.85;;
52642;SDS011;38531;53.296;6.614;2023-03-01T07:41:16;6.32;;;3.58;;
52642;SDS011;38531;53.296;6.614;2023-03-01T07:43:42;7.55;;;3.60;;
52642;SDS011;38531;53.296;6.614;2023-03-01T07:46:08;5.68;;;2.92;;
52642;SDS011;38531;53.296;6.614;2023-03-01T07:48:35;5.68;;;3.00;;
52642;SDS011;38531;53.296;6.614;2023-03-01T07:51:02;6.45;;;2.80;;
52642;SDS011;38531;53.296;6.614;2023-03-01T07:53:29;6.28;;;2.83;;
52642;SDS011;38531;53.296;6.614;2023-03-01T07:56:09;5.70;;;2.70;;
52642;SDS011;38531;53.296;6.614;2023-03-01T07:58:40;6.43;;;2.90;;
52642;SDS011;38531;53.296;6.614;2023-03-01T08:01:08;4.60;;;2.05;;
52642;SDS011;38531;53.296;6.614;2023-03-01T08:03:36;4.90;;;2.35;;
52642;SDS011;38531;53.296;6.614;2023-03-01T08:06:03;4.75;;;2.55;;
52642;SDS011;38531;53.296;6.614;2023-03-01T08:08:30;6.60;;;3.25;;
52642;SDS011;38531;53.296;6.614;2023-03-01T08:10:57;5.85;;;3.28;;
52642;SDS011;38531;53.296;6.614;2023-03-01T08:13:24;7.25;;;3.40;;
52642;SDS011;38531;53.296;6.614;2023-03-01T08:15:50;8.35;;;3.80;;
52642;SDS011;38531;53.296;6.614;2023-03-01T08:18:17;8.27;;;4.45;;
52642;SDS011;38531;53.296;6.614;2023-03-01T08:20:44;8.77;;;4.70;;
52642;SDS011;38531;53.296;6.614;2023-03-01T08:23:13;8.65;;;4.22;;
52642;SDS011;38531;53.296;6.614;2023-03-01T08:25:42;7.03;;;4.07;;
52642;SDS011;38531;53.296;6.614;2023-03-01T08:28:08;7.78;;;4.10;;
52642;SDS011;38531;53.296;6.614;2023-03-01T08:30:36;7.45;;;3.95;;
52642;SDS011;38531;53.296;6.614;2023-03-01T08:33:02;7.85;;;4.22;;
52642;SDS011;38531;53.296;6.614;2023-03-01T08:35:28;8.95;;;4.43;;
52642;SDS011;38531;53.296;6.614;2023-03-01T08:37:54;7.13;;;3.58;;
52642;SDS011;38531;53.296;6.614;2023-03-01T08:40:22;8.27;;;3.65;;
52642;SDS011;38531;53.296;6.614;2023-03-01T08:42:50;8.48;;;4.40;;
52642;SDS011;38531;53.296;6.614;2023-03-01T08:45:16;7.68;;;4.07;;
52642;SDS011;38531;53.296;6.614;2023-03-01T08:47:43;9.10;;;4.28;;
52642;SDS011;38531;53.296;6.614;2023-03-01T08:50:10;6.85;;;3.50;;
52642;SDS011;38531;53.296;6.614;2023-03-01T08:52:36;7.57;;;4.10;;
52642;SDS011;38531;53.296;6.614;2023-03-01T08:55:02;7.60;;;3.25;;
52642;SDS011;38531;53.296;6.614;2023-03-01T08:57:28;5.72;;;3.50;;
52642;SDS011;38531;53.296;6.614;2023-03-01T08:59:59;6.72;;;3.70;;
52642;SDS011;38531;53.296;6.614;2023-03-01T09:02:25;7.75;;;4.00;;
52642;SDS011;38531;53.296;6.614;2023-03-01T09:04:51;8.77;;;4.53;;
52642;SDS011;38531;53.296;6.614;2023-03-01T09:07:17;10.57;;;4.75;;
52642;SDS011;38531;53.296;6.614;2023-03-01T09:09:43;6.90;;;3.85;;
52642;SDS011;38531;53.296;6.614;2023-03-01T09:12:11;9.38;;;4.43;;
52642;SDS011;38531;53.296;6.614;2023-03-01T09:14:37;7.60;;;4.20;;
52642;SDS011;38531;53.296;6.614;2023-03-01T09:17:03;9.80;;;5.03;;
52642;SDS011;38531;53.296;6.614;2023-03-01T09:19:30;9.18;;;4.22;;
52642;SDS011;38531;53.296;6.614;2023-03-01T09:21:55;8.88;;;4.10;;
52642;SDS011;38531;53.296;6.614;2023-03-01T09:24:26;14.52;;;6.70;;
52642;SDS011;38531;53.296;6.614;2023-03-01T09:27:02;11.68;;;6.57;;
52642;SDS011;38531;53.296;6.614;2023-03-01T09:29:28;10.93;;;5.85;;
52642;SDS011;38531;53.296;6.614;2023-03-01T09:31:57;12.23;;;6.57;;
52642;SDS011;38531;53.296;6.614;2023-03-01T09:34:23;11.55;;;7.13;;
52642;SDS011;38531;53.296;6.614;2023-03-01T09:36:52;14.02;;;7.25;;
52642;SDS011;38531;53.296;6.614;2023-03-01T09:39:18;12.07;;;6.63;;
52642;SDS011;38531;53.296;6.614;2023-03-01T09:41:46;13.55;;;6.50;;
52642;SDS011;38531;53.296;6.614;2023-03-01T09:44:27;12.30;;;6.93;;
52642;SDS011;38531;53.296;6.614;2023-03-01T09:47:03;11.88;;;6.53;;
52642;SDS011;38531;53.296;6.614;2023-03-01T09:49:33;14.73;;;7.88;;
52642;SDS011;38531;53.296;6.614;2023-03-01T09:55:07;15.13;;;8.07;;
52642;SDS011;38531;53.296;6.614;2023-03-01T09:57:49;16.08;;;8.80;;
52642;SDS011;38531;53.296;6.614;2023-03-01T10:05:48;17.45;;;10.32;;
52642;SDS011;38531;53.296;6.614;2023-03-01T10:08:32;18.38;;;9.50;;
52642;SDS011;38531;53.296;6.614;2023-03-01T10:11:15;20.13;;;11.13;;
52642;SDS011;38531;53.296;6.614;2023-03-01T10:14:09;17.85;;;11.05;;
52642;SDS011;38531;53.296;6.614;2023-03-01T10:17:03;18.05;;;10.02;;
52642;SDS011;38531;53.296;6.614;2023-03-01T10:24:48;15.02;;;8.52;;
52642;SDS011;38531;53.296;6.614;2023-03-01T10:30:12;18.58;;;9.93;;
52642;SDS011;38531;53.296;6.614;2023-03-01T10:32:45;18.73;;;11.30;;
52642;SDS011;38531;53.296;6.614;2023-03-01T10:38:09;15.32;;;9.90;;
52642;SDS011;38531;53.296;6.614;2023-03-01T10:43:56;17.90;;;9.35;;
52642;SDS011;38531;53.296;6.614;2023-03-01T10:46:32;13.40;;;8.95;;
52642;SDS011;38531;53.296;6.614;2023-03-01T10:51:42;14.73;;;8.65;;
52642;SDS011;38531;53.296;6.614;2023-03-01T10:54:30;15.95;;;9.80;;
52642;SDS011;38531;53.296;6.614;2023-03-01T10:57:05;14.30;;;8.45;;
52642;SDS011;38531;53.296;6.614;2023-03-01T10:59:51;12.77;;;8.05;;
52642;SDS011;38531;53.296;6.614;2023-03-01T11:02:30;14.32;;;8.52;;
52642;SDS011;38531;53.296;6.614;2023-03-01T11:10:35;14.32;;;9.32;;
52642;SDS011;38531;53.296;6.614;2023-03-01T11:24:54;11.95;;;7.57;;
52642;SDS011;38531;53.296;6.614;2023-03-01T11:27:31;12.50;;;7.68;;
52642;SDS011;38531;53.296;6.614;2023-03-01T11:35:37;11.23;;;7.05;;
52642;SDS011;38531;53.296;6.614;2023-03-01T11:40:43;14.98;;;7.15;;
52642;SDS011;38531;53.296;6.614;2023-03-01T11:43:35;11.90;;;7.15;;
52642;SDS011;38531;53.296;6.614;2023-03-01T11:46:18;17.45;;;9.80;;
52642;SDS011;38531;53.296;6.614;2023-03-01T11:55:23;13.07;;;7.35;;
52642;SDS011;38531;53.296;6.614;2023-03-01T12:00:58;9.70;;;5.68;;
52642;SDS011;38531;53.296;6.614;2023-03-01T12:03:58;8.32;;;5.43;;
52642;SDS011;38531;53.296;6.614;2023-03-01T12:09:07;7.30;;;4.25;;
52642;SDS011;38531;53.296;6.614;2023-03-01T12:15:26;6.10;;;3.67;;
52642;SDS011;38531;53.296;6.614;2023-03-01T12:18:28;6.28;;;4.00;;
52642;SDS011;38531;53.296;6.614;2023-03-01T12:30:05;8.68;;;4.47;;
52642;SDS011;38531;53.296;6.614;2023-03-01T12:41:11;6.65;;;3.97;;
52642;SDS011;38531;53.296;6.614;2023-03-01T12:49:40;7.68;;;4.50;;
52642;SDS011;38531;53.296;6.614;2023-03-01T12:52:13;9.38;;;5.38;;
52642;SDS011;38531;53.296;6.614;2023-03-01T12:54:41;9.93;;;6.10;;
52642;SDS011;38531;53.296;6.614;2023-03-01T12:57:18;11.40;;;6.60;;
52642;SDS011;38531;53.296;6.614;2023-03-01T13:09:32;12.63;;;7.05;;
52642;SDS011;38531;53.296;6.614;2023-03-01T13:18:04;10.63;;;6.72;;
52642;SDS011;38531;53.296;6.614;2023-03-01T13:20:51;12.90;;;6.80;;
52642;SDS011;38531;53.296;6.614;2023-03-01T13:31:05;11.68;;;6.32;;
52642;SDS011;38531;53.296;6.614;2023-03-01T13:33:34;10.68;;;6.10;;
52642;SDS011;38531;53.296;6.614;2023-03-01T13:36:06;8.80;;;5.85;;
52642;SDS011;38531;53.296;6.614;2023-03-01T13:49:48;10.40;;;6.10;;
52642;SDS011;38531;53.296;6.614;2023-03-01T13:55:30;7.93;;;5.13;;
52642;SDS011;38531;53.296;6.614;2023-03-01T13:58:03;8.30;;;4.78;;
52642;SDS011;38531;53.296;6.614;2023-03-01T14:00:40;10.02;;;4.70;;
52642;SDS011;38531;53.296;6.614;2023-03-01T14:03:10;7.55;;;5.20;;
52642;SDS011;38531;53.296;6.614;2023-03-01T14:05:40;9.35;;;5.28;;
52642;SDS011;38531;53.296;6.614;2023-03-01T14:08:19;7.35;;;4.55;;
52642;SDS011;38531;53.296;6.614;2023-03-01T14:13:37;8.65;;;5.05;;
52642;SDS011;38531;53.296;6.614;2023-03-01T14:16:46;9.60;;;5.32;;
52642;SDS011;38531;53.296;6.614;2023-03-01T14:19:33;8.90;;;5.88;;
52642;SDS011;38531;53.296;6.614;2023-03-01T14:24:32;8.57;;;5.20;;
52642;SDS011;38531;53.296;6.614;2023-03-01T14:27:02;7.95;;;5.15;;
52642;SDS011;38531;53.296;6.614;2023-03-01T14:29:37;9.50;;;5.93;;
52642;SDS011;38531;53.296;6.614;2023-03-01T14:32:24;8.02;;;5.75;;
52642;SDS011;38531;53.296;6.614;2023-03-01T14:34:52;8.88;;;5.95;;
52642;SDS011;38531;53.296;6.614;2023-03-01T14:37:20;8.82;;;5.05;;
52642;SDS011;38531;53.296;6.614;2023-03-01T14:39:53;7.82;;;4.78;;
52642;SDS011;38531;53.296;6.614;2023-03-01T14:42:21;7.40;;;4.78;;
52642;SDS011;38531;53.296;6.614;2023-03-01T14:44:50;10.05;;;5.80;;
52642;SDS011;38531;53.296;6.614;2023-03-01T14:47:28;8.63;;;5.40;;
52642;SDS011;38531;53.296;6.614;2023-03-01T14:50:40;8.85;;;5.90;;
52642;SDS011;38531;53.296;6.614;2023-03-01T14:53:06;8.82;;;5.50;;
52642;SDS011;38531;53.296;6.614;2023-03-01T14:55:48;8.57;;;5.57;;
52642;SDS011;38531;53.296;6.614;2023-03-01T14:58:31;10.68;;;5.75;;
52642;SDS011;38531;53.296;6.614;2023-03-01T15:01:02;12.93;;;7.40;;
52642;SDS011;38531;53.296;6.614;2023-03-01T15:06:00;9.52;;;5.43;;
52642;SDS011;38531;53.296;6.614;2023-03-01T15:08:31;10.80;;;5.60;;
52642;SDS011;38531;53.296;6.614;2023-03-01T15:11:03;9.55;;;6.25;;
52642;SDS011;38531;53.296;6.614;2023-03-01T15:13:40;8.07;;;4.68;;
52642;SDS011;38531;53.296;6.614;2023-03-01T15:16:11;8.63;;;5.28;;
52642;SDS011;38531;53.296;6.614;2023-03-01T15:18:46;9.57;;;5.68;;
52642;SDS011;38531;53.296;6.614;2023-03-01T15:24:06;10.05;;;5.90;;
52642;SDS011;38531;53.296;6.614;2023-03-01T15:26:39;7.68;;;5.00;;
52642;SDS011;38531;53.296;6.614;2023-03-01T15:29:15;7.30;;;5.22;;
52642;SDS011;38531;53.296;6.614;2023-03-01T15:31:50;10.20;;;5.78;;
52642;SDS011;38531;53.296;6.614;2023-03-01T15:41:25;10.73;;;6.32;;
52642;SDS011;38531;53.296;6.614;2023-03-01T15:43:52;12.40;;;7.00;;
52642;SDS011;38531;53.296;6.614;2023-03-01T15:46:26;9.93;;;6.43;;
52642;SDS011;38531;53.296;6.614;2023-03-01T15:48:56;10.55;;;6.07;;
52642;SDS011;38531;53.296;6.614;2023-03-01T15:51:35;14.30;;;7.63;;
52642;SDS011;38531;53.296;6.614;2023-03-01T15:54:06;11.68;;;7.13;;
52642;SDS011;38531;53.296;6.614;2023-03-01T15:56:42;14.20;;;6.82;;
52642;SDS011;38531;53.296;6.614;2023-03-01T15:59:19;10.00;;;6.68;;
52642;SDS011;38531;53.296;6.614;2023-03-01T16:01:48;13.15;;;7.95;;
52642;SDS011;38531;53.296;6.614;2023-03-01T16:04:19;12.98;;;7.38;;
52642;SDS011;38531;53.296;6.614;2023-03-01T16:06:46;10.18;;;6.10;;
52642;SDS011;38531;53.296;6.614;2023-03-01T16:09:25;10.77;;;6.30;;
52642;SDS011;38531;53.296;6.614;2023-03-01T16:11:52;12.13;;;6.40;;
52642;SDS011;38531;53.296;6.614;2023-03-01T16:14:24;8.75;;;5.78;;
52642;SDS011;38531;53.296;6.614;2023-03-01T16:16:50;10.27;;;5.97;;
52642;SDS011;38531;53.296;6.614;2023-03-01T16:19:16;9.77;;;5.93;;
52642;SDS011;38531;53.296;6.614;2023-03-01T16:21:42;13.65;;;6.40;;
52642;SDS011;38531;53.296;6.614;2023-03-01T16:24:12;9.45;;;5.88;;
52642;SDS011;38531;53.296;6.614;2023-03-01T16:26:41;9.15;;;6.00;;
52642;SDS011;38531;53.296;6.614;2023-03-01T16:29:08;9.95;;;5.70;;
52642;SDS011;38531;53.296;6.614;2023-03-01T16:31:33;11.57;;;6.13;;
52642;SDS011;38531;53.296;6.614;2023-03-01T16:34:02;10.70;;;7.50;;
52642;SDS011;38531;53.296;6.614;2023-03-01T16:36:27;9.52;;;5.93;;
52642;SDS011;38531;53.296;6.614;2023-03-01T16:38:54;10.75;;;6.55;;
52642;SDS011;38531;53.296;6.614;2023-03-01T16:41:22;7.90;;;5.22;;
52642;SDS011;38531;53.296;6.614;2023-03-01T16:43:51;11.63;;;5.80;;
52642;SDS011;38531;53.296;6.614;2023-03-01T16:46:18;14.25;;;7.03;;
52642;SDS011;38531;53.296;6.614;2023-03-01T16:48:47;10.15;;;5.88;;
52642;SDS011;38531;53.296;6.614;2023-03-01T16:51:16;11.02;;;6.07;;
52642;SDS011;38531;53.296;6.614;2023-03-01T16:53:50;11.98;;;6.47;;
52642;SDS011;38531;53.296;6.614;2023-03-01T16:56:17;10.65;;;6.25;;
52642;SDS011;38531;53.296;6.614;2023-03-01T16:58:45;12.93;;;6.70;;
52642;SDS011;38531;53.296;6.614;2023-03-01T17:01:18;9.18;;;5.80;;
52642;SDS011;38531;53.296;6.614;2023-03-01T17:03:45;10.38;;;5.95;;
52642;SDS011;38531;53.296;6.614;2023-03-01T17:06:14;7.60;;;4.60;;
52642;SDS011;38531;53.296;6.614;2023-03-01T17:08:45;8.60;;;4.18;;
52642;SDS011;38531;53.296;6.614;2023-03-01T17:11:15;5.93;;;3.63;;
52642;SDS011;38531;53.296;6.614;2023-03-01T17:13:42;8.10;;;4.40;;
52642;SDS011;38531;53.296;6.614;2023-03-01T17:16:09;6.95;;;4.57;;
52642;SDS011;38531;53.296;6.614;2023-03-01T17:18:37;5.95;;;4.25;;
52642;SDS011;38531;53.296;6.614;2023-03-01T17:21:04;6.65;;;4.78;;
52642;SDS011;38531;53.296;6.614;2023-03-01T17:23:31;9.07;;;4.78;;
52642;SDS011;38531;53.296;6.614;2023-03-01T17:25:58;9.68;;;5.95;;
52642;SDS011;38531;53.296;6.614;2023-03-01T17:28:25;9.02;;;4.90;;
52642;SDS011;38531;53.296;6.614;2023-03-01T17:30:57;6.22;;;4.72;;
52642;SDS011;38531;53.296;6.614;2023-03-01T17:33:24;4.57;;;3.53;;
52642;SDS011;38531;53.296;6.614;2023-03-01T17:35:50;8.63;;;5.05;;
52642;SDS011;38531;53.296;6.614;2023-03-01T17:38:16;5.93;;;4.15;;
52642;SDS011;38531;53.296;6.614;2023-03-01T17:40:45;7.60;;;4.32;;
52642;SDS011;38531;53.296;6.614;2023-03-01T17:43:11;8.18;;;3.72;;
52642;SDS011;38531;53.296;6.614;2023-03-01T17:45:38;7.55;;;4.50;;
52642;SDS011;38531;53.296;6.614;2023-03-01T17:48:04;6.15;;;4.00;;
52642;SDS011;38531;53.296;6.614;2023-03-01T17:50:31;8.93;;;4.80;;
52642;SDS011;38531;53.296;6.614;2023-03-01T17:53:00;8.35;;;5.07;;
52642;SDS011;38531;53.296;6.614;2023-03-01T17:55:33;8.15;;;5.50;;
52642;SDS011;38531;53.296;6.614;2023-03-01T17:57:59;8.38;;;5.32;;
52642;SDS011;38531;53.296;6.614;2023-03-01T18:00:25;6.63;;;4.97;;
52642;SDS011;38531;53.296;6.614;2023-03-01T18:02:50;6.78;;;4.95;;
52642;SDS011;38531;53.296;6.614;2023-03-01T18:05:18;10.50;;;6.55;;
52642;SDS011;38531;53.296;6.614;2023-03-01T18:07:44;11.20;;;6.13;;
52642;SDS011;38531;53.296;6.614;2023-03-01T18:10:10;9.25;;;5.75;;
52642;SDS011;38531;53.296;6.614;2023-03-01T18:12:36;7.78;;;5.18;;
52642;SDS011;38531;53.296;6.614;2023-03-01T18:15:03;8.43;;;5.55;;
52642;SDS011;38531;53.296;6.614;2023-03-01T18:17:30;9.68;;;6.40;;
52642;SDS011;38531;53.296;6.614;2023-03-01T18:19:56;9.65;;;6.35;;
52642;SDS011;38531;53.296;6.614;2023-03-01T18:22:24;9.38;;;6.05;;
52642;SDS011;38531;53.296;6.614;2023-03-01T18:24:50;6.82;;;4.95;;
52642;SDS011;38531;53.296;6.614;2023-03-01T18:27:16;10.27;;;5.53;;
52642;SDS011;38531;53.296;6.614;2023-03-01T18:29:42;8.35;;;5.32;;
52642;SDS011;38531;53.296;6.614;2023-03-01T18:32:08;7.90;;;5.03;;
52642;SDS011;38531;53.296;6.614;2023-03-01T18:34:34;8.30;;;5.47;;
52642;SDS011;38531;53.296;6.614;2023-03-01T18:37:00;8.00;;;5.60;;
52642;SDS011;38531;53.296;6.614;2023-03-01T18:39:26;8.77;;;4.53;;
52642;SDS011;38531;53.296;6.614;2023-03-01T18:41:52;6.93;;;4.15;;
52642;SDS011;38531;53.296;6.614;2023-03-01T18:44:18;6.68;;;4.70;;
52642;SDS011;38531;53.296;6.614;2023-03-01T18:46:44;6.63;;;4.53;;
52642;SDS011;38531;53.296;6.614;2023-03-01T18:49:10;6.38;;;4.50;;
52642;SDS011;38531;53.296;6.614;2023-03-01T18:51:38;6.40;;;4.50;;
52642;SDS011;38531;53.296;6.614;2023-03-01T18:54:04;7.82;;;5.65;;
52642;SDS011;38531;53.296;6.614;2023-03-01T18:56:31;7.00;;;5.10;;
52642;SDS011;38531;53.296;6.614;2023-03-01T18:58:57;8.23;;;5.55;;
52642;SDS011;38531;53.296;6.614;2023-03-01T19:01:25;6.88;;;5.03;;
52642;SDS011;38531;53.296;6.614;2023-03-01T19:03:56;9.35;;;5.95;;
52642;SDS011;38531;53.296;6.614;2023-03-01T19:06:23;9.55;;;6.00;;
52642;SDS011;38531;53.296;6.614;2023-03-01T19:08:55;9.35;;;5.80;;
52642;SDS011;38531;53.296;6.614;2023-03-01T19:11:21;11.18;;;5.97;;
52642;SDS011;38531;53.296;6.614;2023-03-01T19:13:51;8.18;;;5.30;;
52642;SDS011;38531;53.296;6.614;2023-03-01T19:16:24;7.68;;;5.22;;
52642;SDS011;38531;53.296;6.614;2023-03-01T19:18:56;8.55;;;4.95;;
52642;SDS011;38531;53.296;6.614;2023-03-01T19:21:27;6.75;;;5.15;;
52642;SDS011;38531;53.296;6.614;2023-03-01T19:23:56;6.93;;;4.68;;
52642;SDS011;38531;53.296;6.614;2023-03-01T19:26:23;8.23;;;6.22;;
52642;SDS011;38531;53.296;6.614;2023-03-01T19:28:50;10.75;;;6.22;;
52642;SDS011;38531;53.296;6.614;2023-03-01T19:31:18;7.40;;;5.50;;
52642;SDS011;38531;53.296;6.614;2023-03-01T19:33:45;7.82;;;5.28;;
52642;SDS011;38531;53.296;6.614;2023-03-01T19:36:12;8.63;;;4.72;;
52642;SDS011;38531;53.296;6.614;2023-03-01T19:38:39;10.93;;;4.97;;
52642;SDS011;38531;53.296;6.614;2023-03-01T19:41:08;7.72;;;5.03;;
52642;SDS011;38531;53.296;6.614;2023-03-01T19:43:40;7.32;;;4.75;;
52642;SDS011;38531;53.296;6.614;2023-03-01T19:46:07;8.40;;;5.38;;
52642;SDS011;38531;53.296;6.614;2023-03-01T19:48:33;8.32;;;6.47;;
52642;SDS011;38531;53.296;6.614;2023-03-01T19:50:59;8.23;;;5.60;;
52642;SDS011;38531;53.296;6.614;2023-03-01T19:53:25;7.68;;;5.13;;
52642;SDS011;38531;53.296;6.614;2023-03-01T19:55:58;10.40;;;5.95;;
52642;SDS011;38531;53.296;6.614;2023-03-01T19:58:28;10.98;;;5.78;;
52642;SDS011;38531;53.296;6.614;2023-03-01T20:00:55;9.50;;;5.70;;
52642;SDS011;38531;53.296;6.614;2023-03-01T20:03:32;11.77;;;6.75;;
52642;SDS011;38531;53.296;6.614;2023-03-01T20:05:59;11.52;;;6.72;;
52642;SDS011;38531;53.296;6.614;2023-03-01T20:08:32;11.90;;;6.70;;